createdAt,value
2023-02-16T00:03:24.837Z,10.84
2023-02-16T00:08:27.772Z,10.69
2023-02-16T00:13:49.028Z,10.39
2023-02-16T00:18:52.525Z,10.25
2023-02-16T00:23:55.535Z,10.22
2023-02-16T00:28:59.916Z,10.34
2023-02-16T00:34:08.374Z,10.18
2023-02-16T00:39:11.312Z,10.21
2023-02-16T00:44:17.656Z,10.18
2023-02-16T00:49:21.568Z,10.19
2023-02-16T00:54:24.520Z,10.07
2023-02-16T00:59:28.881Z,10.02
2023-02-16T01:04:31.880Z,9.88
2023-02-16T01:09:52.442Z,9.92
2023-02-16T01:14:56.815Z,10.19
2023-02-16T01:19:59.741Z,10.08
2023-02-16T01:25:02.738Z,9.75
2023-02-16T01:30:08.067Z,9.53
2023-02-16T01:35:11.480Z,9.61
2023-02-16T01:40:21.867Z,10.09
2023-02-16T01:45:31.727Z,9.87
2023-02-16T01:50:43.503Z,9.91
2023-02-16T01:55:48.401Z,9.76
2023-02-16T02:01:24.357Z,9.97
2023-02-16T02:06:33.286Z,10.22
2023-02-16T02:11:38.550Z,10.39
2023-02-16T02:16:41.613Z,10.43
2023-02-16T02:22:14.629Z,10.52
2023-02-16T02:27:23.834Z,10.61
2023-02-16T02:32:33.028Z,10.71
2023-02-16T02:37:45.447Z,10.76
2023-02-16T02:42:55.698Z,10.62
2023-02-16T02:47:59.133Z,10.80
2023-02-16T02:53:03.733Z,10.79
2023-02-16T02:58:25.486Z,10.74
2023-02-16T03:03:30.610Z,10.69
2023-02-16T03:08:36.049Z,10.70
2023-02-16T03:13:41.708Z,10.65
2023-02-16T03:19:03.311Z,10.65
2023-02-16T03:24:26.360Z,10.55
2023-02-16T03:29:30.853Z,10.67
2023-02-16T03:34:34.679Z,10.68
2023-02-16T03:39:58.028Z,10.57
2023-02-16T03:45:02.407Z,10.35
2023-02-16T03:50:05.587Z,10.12
2023-02-16T03:55:08.743Z,9.96
2023-02-16T04:00:13.952Z,10.04
2023-02-16T04:05:16.999Z,9.98
2023-02-16T04:10:20.060Z,10.01
2023-02-16T04:15:26.427Z,10.01
2023-02-16T04:20:30.340Z,9.85
2023-02-16T04:25:33.261Z,9.90
2023-02-16T04:30:38.849Z,9.93
2023-02-16T04:35:42.960Z,9.97
2023-02-16T04:40:46.009Z,9.80
2023-02-16T04:45:50.409Z,9.80
2023-02-16T04:50:53.536Z,9.91
2023-02-16T04:55:56.475Z,9.72
2023-02-16T05:01:00.962Z,9.68
2023-02-16T05:06:04.005Z,9.73
2023-02-16T05:11:24.292Z,9.86
2023-02-16T05:16:28.714Z,9.80
2023-02-16T05:21:35.555Z,9.74
2023-02-16T05:26:39.431Z,9.56
2023-02-16T05:31:43.992Z,9.40
2023-02-16T05:36:47.066Z,9.43
2023-02-16T05:41:50.232Z,9.52
2023-02-16T05:46:54.692Z,9.44
2023-02-16T05:51:57.728Z,9.36
2023-02-16T05:57:00.800Z,9.10
2023-02-16T06:02:05.210Z,9.22
2023-02-16T06:07:08.160Z,9.25
2023-02-16T06:12:11.144Z,9.12
2023-02-16T06:17:15.627Z,9.23
2023-02-16T06:22:18.572Z,9.12
2023-02-16T06:27:21.600Z,9.17
2023-02-16T06:32:26.013Z,9.12
2023-02-16T06:37:29.060Z,8.97
2023-02-16T06:42:32.019Z,8.96
2023-02-16T06:47:36.552Z,9.08
2023-02-16T06:52:39.549Z,8.93
2023-02-16T06:57:42.589Z,8.97
2023-02-16T07:02:46.960Z,8.98
2023-02-16T07:07:49.914Z,9.09
2023-02-16T07:12:52.890Z,8.98
2023-02-16T07:17:57.280Z,8.77
2023-02-16T07:23:00.284Z,9.02
2023-02-16T07:28:03.194Z,9.09
2023-02-16T07:33:08.034Z,9.17
2023-02-16T07:38:11.143Z,9.18
2023-02-16T07:43:14.147Z,9.24
2023-02-16T07:48:18.769Z,9.38
2023-02-16T07:53:21.793Z,9.30
2023-02-16T07:58:30.664Z,9.26
2023-02-16T08:03:35.153Z,9.40
2023-02-16T08:08:38.750Z,9.43
2023-02-16T08:13:41.738Z,9.50
2023-02-16T08:18:48.284Z,9.62
2023-02-16T08:23:55.494Z,9.71
2023-02-16T08:28:59.255Z,9.93
2023-02-16T08:34:04.389Z,10.13
2023-02-16T08:39:08.808Z,10.38
2023-02-16T08:44:12.086Z,10.53
2023-02-16T08:49:17.565Z,10.66
2023-02-16T08:54:21.557Z,10.94
2023-02-16T08:59:28.172Z,11.63
2023-02-16T09:04:33.714Z,12.95
2023-02-16T09:09:36.682Z,14.32
2023-02-16T09:14:39.789Z,14.94
2023-02-16T09:19:44.943Z,16.16
2023-02-16T09:24:47.890Z,15.87
2023-02-16T09:29:51.526Z,14.67
2023-02-16T09:34:56.030Z,14.21
2023-02-16T09:39:59.058Z,13.87
2023-02-16T09:45:07.673Z,13.63
2023-02-16T09:50:27.646Z,13.43
2023-02-16T09:55:39.596Z,13.23
2023-02-16T10:00:45.738Z,13.12
2023-02-16T10:05:53.244Z,13.03
2023-02-16T10:11:02.437Z,13.12
2023-02-16T10:16:07.542Z,13.29
2023-02-16T10:21:17.169Z,13.39
2023-02-16T10:26:24.686Z,13.45
2023-02-16T10:31:30.621Z,13.49
2023-02-16T10:36:42.992Z,13.61
2023-02-16T10:41:49.776Z,13.84
2023-02-16T10:46:56.726Z,14.21
2023-02-16T10:52:02.804Z,14.38
2023-02-16T10:57:07.279Z,14.62
2023-02-16T11:02:19.219Z,14.96
2023-02-16T11:07:24.174Z,16.00
2023-02-16T11:12:29.338Z,16.99
2023-02-16T11:17:32.777Z,18.36
2023-02-16T11:22:38.387Z,19.15
2023-02-16T11:27:50.736Z,19.76
2023-02-16T11:32:53.804Z,20.48
2023-02-16T11:37:59.128Z,21.43
2023-02-16T11:43:04.310Z,21.45
2023-02-16T11:48:09.488Z,22.37
2023-02-16T11:53:25.715Z,23.68
2023-02-16T11:58:29.916Z,23.55
2023-02-16T12:03:49.194Z,23.41
2023-02-16T12:09:11.416Z,22.77
2023-02-16T12:14:21.639Z,22.00
2023-02-16T12:19:30.899Z,22.74
2023-02-16T12:24:44.811Z,22.42
2023-02-16T12:29:54.061Z,22.29
2023-02-16T12:35:04.667Z,23.04
2023-02-16T12:40:12.853Z,22.16
2023-02-16T12:45:19.302Z,22.16
2023-02-16T12:50:24.820Z,22.14
2023-02-16T12:55:32.437Z,22.46
2023-02-16T13:00:41.411Z,22.71
2023-02-16T13:05:45.925Z,22.83
2023-02-16T13:10:55.542Z,22.47
2023-02-16T13:16:02.482Z,22.75
2023-02-16T13:21:09.559Z,22.91
2023-02-16T13:26:18.602Z,22.74
2023-02-16T13:31:30.630Z,22.45
2023-02-16T13:36:48.510Z,23.24
2023-02-16T13:42:21.924Z,22.63
2023-02-16T13:47:28.994Z,22.67
2023-02-16T13:52:33.339Z,22.77
2023-02-16T13:57:55.421Z,22.81
2023-02-16T14:03:01.472Z,22.92
2023-02-16T14:08:15.101Z,22.97
2023-02-16T14:13:18.507Z,23.26
2023-02-16T14:18:28.881Z,23.41
2023-02-16T14:23:34.867Z,23.86
2023-02-16T14:29:04.736Z,23.37
2023-02-16T14:34:13.686Z,23.50
2023-02-16T14:39:20.144Z,23.66
2023-02-16T14:44:39.477Z,23.53
2023-02-16T14:50:12.639Z,23.38
2023-02-16T14:55:36.432Z,23.35
2023-02-16T15:00:46.003Z,23.39
2023-02-16T15:05:57.309Z,23.49
2023-02-16T15:11:00.213Z,23.41
2023-02-16T15:16:05.629Z,23.31
2023-02-16T15:21:16.892Z,23.00
2023-02-16T15:26:22.130Z,23.42
2023-02-16T15:31:27.102Z,22.83
2023-02-16T15:36:35.517Z,22.39
2023-02-16T15:41:39.290Z,22.34
2023-02-16T15:46:43.834Z,22.44
2023-02-16T15:51:48.480Z,22.39
2023-02-16T15:56:53.582Z,22.54
2023-02-16T16:02:00.445Z,22.06
2023-02-16T16:07:05.251Z,21.82
2023-02-16T16:12:09.848Z,21.53
2023-02-16T16:17:16.661Z,21.41
2023-02-16T16:22:33.130Z,21.49
2023-02-16T16:27:37.385Z,21.26
2023-02-16T16:32:40.239Z,21.23
2023-02-16T16:37:44.521Z,21.15
2023-02-16T16:43:07.030Z,20.77
2023-02-16T16:48:10.968Z,20.51
2023-02-16T16:53:32.412Z,20.48
2023-02-16T16:58:36.684Z,20.49
2023-02-16T17:03:39.746Z,20.47
2023-02-16T17:08:42.713Z,20.28
2023-02-16T17:13:47.043Z,19.92
2023-02-16T17:18:49.920Z,19.86
2023-02-16T17:23:53.651Z,19.56
2023-02-16T17:28:57.974Z,19.42
2023-02-16T17:34:01.111Z,19.25
2023-02-16T17:39:03.938Z,19.12
2023-02-16T17:44:08.234Z,19.05
2023-02-16T17:49:11.507Z,18.84
2023-02-16T17:54:14.376Z,18.66
2023-02-16T17:59:18.684Z,18.53
2023-02-16T18:04:21.598Z,18.24
2023-02-16T18:09:24.917Z,18.04
2023-02-16T18:14:29.201Z,17.75
2023-02-16T18:19:32.115Z,17.35
2023-02-16T18:24:36.355Z,17.19
2023-02-16T18:29:41.250Z,17.05
2023-02-16T18:34:44.107Z,16.93
2023-02-16T18:39:46.960Z,16.84
2023-02-16T18:44:51.264Z,16.77
2023-02-16T18:49:54.143Z,16.62
2023-02-16T18:54:57.000Z,16.47
2023-02-16T19:00:01.262Z,16.39
2023-02-16T19:05:04.535Z,16.37
2023-02-16T19:10:08.480Z,16.27
2023-02-16T19:15:12.773Z,15.98
2023-02-16T19:20:18.377Z,16.01
2023-02-16T19:25:21.369Z,15.88
2023-02-16T19:30:25.673Z,15.87
2023-02-16T19:35:28.580Z,15.70
2023-02-16T19:40:31.786Z,15.44
2023-02-16T19:45:41.265Z,15.46
2023-02-16T19:50:44.192Z,15.26
2023-02-16T19:55:48.503Z,15.26
2023-02-16T20:00:53.183Z,15.12
2023-02-16T20:05:56.051Z,15.13
2023-02-16T20:10:58.917Z,15.13
2023-02-16T20:16:03.847Z,14.63
2023-02-16T20:21:08.037Z,14.48
2023-02-16T20:26:12.072Z,14.49
2023-02-16T20:31:17.722Z,14.16
2023-02-16T20:36:20.713Z,14.06
2023-02-16T20:41:23.599Z,14.08
2023-02-16T20:46:28.135Z,13.78
2023-02-16T20:51:31.023Z,13.59
2023-02-16T20:56:33.939Z,13.60
2023-02-16T21:01:39.511Z,13.57
2023-02-16T21:06:42.428Z,13.31
2023-02-16T21:11:45.386Z,12.97
2023-02-16T21:16:49.648Z,12.86
2023-02-16T21:21:52.825Z,12.95
2023-02-16T21:26:55.679Z,13.11
2023-02-16T21:31:59.949Z,12.79
2023-02-16T21:37:02.893Z,12.87
2023-02-16T21:42:05.785Z,12.76
2023-02-16T21:47:27.564Z,12.26
2023-02-16T21:52:30.423Z,12.46
2023-02-16T21:57:33.650Z,12.50
2023-02-16T22:02:37.908Z,12.74
2023-02-16T22:07:40.779Z,12.23
2023-02-16T22:12:43.670Z,12.12
2023-02-16T22:17:49.501Z,11.99
2023-02-16T22:22:53.346Z,11.97
2023-02-16T22:27:56.215Z,11.90
2023-02-16T22:33:00.475Z,11.84
2023-02-16T22:38:03.330Z,11.49
2023-02-16T22:43:06.203Z,11.67
2023-02-16T22:48:11.437Z,11.70
2023-02-16T22:53:14.323Z,11.65
2023-02-16T22:58:17.196Z,11.66
2023-02-16T23:03:21.462Z,11.71
2023-02-16T23:08:24.728Z,11.70
2023-02-16T23:13:28.668Z,11.58
2023-02-16T23:18:33.292Z,11.51
2023-02-16T23:23:36.243Z,11.53
2023-02-16T23:28:40.444Z,11.61
2023-02-16T23:33:44.725Z,11.63
2023-02-16T23:38:47.636Z,11.33
2023-02-16T23:43:50.466Z,11.31
2023-02-16T23:48:54.764Z,11.35
2023-02-16T23:53:57.907Z,11.26
2023-02-16T23:59:01.544Z,11.23
